VIJP/JAI METAR and TAF weather

Enter ICAO airport designator
Station Type Date Time Source
VIJP METAR 2021/02/27 03:30 UTC NOAA

VIJP 270330Z 29007KT 3000 HZ SCT100 25/12 Q1010 NOSIG


Station Type Date Time Source
VIJP Decoded METAR 2021/02/27 03:30 UTC NOAA

Jaipur / Sanganer, India (VIJP) 26-49N 075-48E 390M
Feb 26, 2021 - 10:30 PM EST / 2021.02.27 0330 UTC
Wind: from the WNW (290 degrees) at 8 MPH (7 KT):0
Visibility: 1 mile(s):0
Sky conditions: partly cloudy
Weather: haze
Temperature: 77 F (25 C)
Dew Point: 53 F (12 C)
Relative Humidity: 44%
Pressure (altimeter): 29.83 in. Hg (1010 hPa)
ob: VIJP 270330Z 29007KT 3000 HZ SCT100 25/12 Q1010 NOSIG
cycle: 3

Station Type Date Time Source
VIJP TAF 2021/02/26 18:00 UTC NOAA

TAF VIJP 261700Z 2618/2724 24005KT 2000 HZ FEW030 SCT100
BECMG 2704/2706 26006KT 3000 HZ
BECMG 2707/2709 26009KT 5000 HZ
BECMG 2712/2714 27005KT 3000 HZ

Example: see airport list